createdAt,value
2022-09-28T00:03:13.991Z,67.20
2022-09-28T00:06:56.293Z,67.30
2022-09-28T00:10:38.325Z,67.40
2022-09-28T00:14:21.364Z,67.50
2022-09-28T00:18:03.474Z,67.60
2022-09-28T00:21:46.207Z,67.70
2022-09-28T00:25:28.369Z,67.70
2022-09-28T00:29:28.423Z,67.70
2022-09-28T00:33:10.498Z,68.20
2022-09-28T00:36:52.778Z,67.70
2022-09-28T00:40:35.014Z,67.90
2022-09-28T00:44:25.934Z,68.10
2022-09-28T00:48:08.297Z,68.70
2022-09-28T00:51:50.566Z,68.40
2022-09-28T00:55:51.958Z,68.40
2022-09-28T00:59:34.673Z,69.80
2022-09-28T01:03:17.248Z,68.50
2022-09-28T01:07:00.483Z,68.50
2022-09-28T01:10:44.100Z,68.50
2022-09-28T01:14:26.351Z,68.70
2022-09-28T01:18:25.580Z,68.80
2022-09-28T01:22:43.099Z,70.00
2022-09-28T01:26:57.340Z,70.70
2022-09-28T01:31:05.769Z,70.20
2022-09-28T01:34:56.280Z,71.00
2022-09-28T01:38:47.386Z,69.60
2022-09-28T01:42:32.858Z,69.60
2022-09-28T01:46:21.690Z,69.30
2022-09-28T01:50:24.850Z,69.20
2022-09-28T01:54:16.789Z,70.70
2022-09-28T01:58:14.831Z,69.70
2022-09-28T02:02:05.545Z,69.50
2022-09-28T02:05:56.712Z,69.40
2022-09-28T02:09:43.845Z,69.60
2022-09-28T02:13:55.096Z,69.70
2022-09-28T02:17:37.597Z,71.40
2022-09-28T02:21:35.312Z,70.30
2022-09-28T02:25:23.288Z,71.50
2022-09-28T02:29:05.699Z,70.90
2022-09-28T02:32:50.146Z,70.80
2022-09-28T02:36:33.588Z,70.40
2022-09-28T02:40:16.813Z,70.40
2022-09-28T02:44:17.521Z,70.60
2022-09-28T02:48:05.718Z,70.50
2022-09-28T02:52:16.019Z,70.70
2022-09-28T02:56:17.378Z,71.80
2022-09-28T03:00:15.566Z,71.00
2022-09-28T03:04:25.661Z,70.80
2022-09-28T03:08:26.991Z,71.60
2022-09-28T03:12:12.580Z,70.80
2022-09-28T03:16:16.677Z,70.80
2022-09-28T03:19:59.660Z,71.50
2022-09-28T03:23:42.486Z,70.70
2022-09-28T03:27:24.596Z,70.70
2022-09-28T03:31:07.232Z,70.70
2022-09-28T03:34:49.383Z,70.60
2022-09-28T03:38:31.455Z,70.70
2022-09-28T04:12:32.269Z,72.20
2022-09-28T04:21:25.376Z,71.10
2022-09-28T04:40:36.670Z,71.50
2022-09-28T04:58:31.642Z,72.20
2022-09-28T05:02:15.513Z,71.20
2022-09-28T05:05:57.982Z,71.40
2022-09-28T05:09:40.303Z,71.50
2022-09-28T05:13:22.337Z,71.70
2022-09-28T05:17:04.619Z,71.80
2022-09-28T05:20:46.647Z,72.00
2022-09-28T05:24:28.734Z,72.00
2022-09-28T05:28:11.324Z,72.00
2022-09-28T05:31:53.600Z,72.10
2022-09-28T05:35:36.462Z,72.20
2022-09-28T05:39:18.851Z,72.40
2022-09-28T05:43:02.716Z,72.80
2022-09-28T05:46:44.920Z,72.70
2022-09-28T05:50:27.167Z,72.60
2022-09-28T05:54:09.413Z,72.60
2022-09-28T05:57:51.614Z,72.60
2022-09-28T06:01:34.054Z,72.40
2022-09-28T06:05:16.217Z,72.40
2022-09-28T06:08:58.509Z,72.60
2022-09-28T06:12:41.482Z,72.80
2022-09-28T06:16:24.411Z,73.10
2022-09-28T06:20:07.368Z,73.20
2022-09-28T06:23:49.653Z,73.40
2022-09-28T06:27:32.299Z,73.60
2022-09-28T06:31:14.502Z,73.80
2022-09-28T06:34:57.273Z,74.20
2022-09-28T06:38:39.436Z,74.80
2022-09-28T06:42:22.074Z,78.20
2022-09-28T06:46:06.328Z,76.20
2022-09-28T06:49:55.520Z,73.90
2022-09-28T06:53:37.849Z,73.90
2022-09-28T06:57:19.832Z,80.60
2022-09-28T07:01:02.711Z,83.20
2022-09-28T07:04:46.062Z,83.60
2022-09-28T07:08:29.529Z,83.40
2022-09-28T07:12:55.501Z,73.70
2022-09-28T07:17:10.804Z,69.80
2022-09-28T07:20:54.637Z,70.90
2022-09-28T07:24:36.993Z,69.80
2022-09-28T07:28:19.720Z,67.20
2022-09-28T07:32:03.797Z,66.00
2022-09-28T07:35:54.177Z,66.20
2022-09-28T07:39:56.091Z,66.60
2022-09-28T07:43:40.088Z,67.60
2022-09-28T07:47:30.808Z,66.80
2022-09-28T07:51:23.785Z,66.80
2022-09-28T07:55:07.374Z,67.50
2022-09-28T07:58:50.166Z,67.80
2022-09-28T08:02:34.176Z,67.40
2022-09-28T08:06:17.406Z,67.50
2022-09-28T08:09:59.465Z,67.90
2022-09-28T08:13:41.908Z,68.20
2022-09-28T08:17:24.274Z,68.20
2022-09-28T08:21:25.085Z,67.80
2022-09-28T08:25:08.050Z,68.70
2022-09-28T08:28:50.419Z,67.90
2022-09-28T08:32:33.089Z,67.30
2022-09-28T08:36:15.422Z,66.40
2022-09-28T08:39:57.721Z,65.80
2022-09-28T08:44:16.038Z,65.10
2022-09-28T08:48:32.921Z,62.50
2022-09-28T08:52:27.592Z,61.50
2022-09-28T08:56:45.021Z,61.00
2022-09-28T09:00:39.161Z,61.00
2022-09-28T09:04:21.703Z,63.70
2022-09-28T09:08:38.378Z,70.40
2022-09-28T09:13:14.311Z,61.40
2022-09-28T09:17:20.092Z,59.70
2022-09-28T09:21:15.806Z,60.80
2022-09-28T09:25:07.024Z,57.10
2022-09-28T09:29:23.231Z,63.20
2022-09-28T09:33:11.366Z,61.00
2022-09-28T09:37:24.567Z,57.50
2022-09-28T09:41:31.337Z,52.10
2022-09-28T09:45:41.415Z,52.10
2022-09-28T09:49:36.693Z,55.00
2022-09-28T09:53:27.390Z,52.10
2022-09-28T09:57:34.725Z,54.30
2022-09-28T10:01:21.472Z,50.90
2022-09-28T10:05:13.050Z,56.80
2022-09-28T10:09:24.039Z,47.70
2022-09-28T10:13:06.476Z,46.30
2022-09-28T10:16:51.034Z,50.70
2022-09-28T10:20:37.637Z,51.10
2022-09-28T10:24:32.432Z,47.40
2022-09-28T10:28:22.936Z,44.00
2022-09-28T10:32:22.261Z,50.60
2022-09-28T10:36:08.526Z,47.70
2022-09-28T10:40:01.363Z,48.20
2022-09-28T10:44:17.760Z,41.80
2022-09-28T10:48:04.251Z,41.60
2022-09-28T10:51:55.059Z,44.10
2022-09-28T10:55:37.387Z,38.80
2022-09-28T10:59:31.375Z,41.50
2022-09-28T11:03:25.459Z,41.00
2022-09-28T11:07:19.810Z,42.10
2022-09-28T11:11:06.406Z,41.50
2022-09-28T11:14:55.725Z,44.70
2022-09-28T11:18:38.920Z,44.60
2022-09-28T11:22:21.265Z,45.40
2022-09-28T11:26:18.416Z,47.20
2022-09-28T11:30:01.263Z,45.20
2022-09-28T11:33:50.823Z,47.00
2022-09-28T11:37:55.772Z,46.80
2022-09-28T11:41:53.568Z,45.10
2022-09-28T11:45:53.577Z,45.80
2022-09-28T11:49:46.872Z,45.90
2022-09-28T11:53:41.725Z,47.10
2022-09-28T11:57:37.042Z,46.50
2022-09-28T12:01:36.382Z,48.10
2022-09-28T12:05:29.941Z,44.60
2022-09-28T12:09:22.734Z,42.80
2022-09-28T12:13:12.238Z,41.10
2022-09-28T12:17:07.764Z,42.60
2022-09-28T12:21:12.380Z,42.80
2022-09-28T12:24:57.769Z,42.90
2022-09-28T12:28:50.319Z,45.10
2022-09-28T12:32:51.443Z,45.50
2022-09-28T12:37:16.119Z,45.40
2022-09-28T12:41:07.570Z,44.90
2022-09-28T12:45:18.608Z,44.40
2022-09-28T12:49:51.451Z,41.90
2022-09-28T12:53:09.226Z,43.10
2022-09-28T12:57:13.213Z,43.40
2022-09-28T13:00:55.345Z,42.90
2022-09-28T13:05:17.411Z,44.40
2022-09-28T13:09:35.155Z,43.90
2022-09-28T13:13:56.733Z,44.90
2022-09-28T13:17:42.957Z,45.10
2022-09-28T13:21:55.692Z,45.30
2022-09-28T13:25:43.904Z,44.80
2022-09-28T13:30:25.596Z,46.10
2022-09-28T13:34:22.488Z,45.60
2022-09-28T13:38:18.833Z,46.60
2022-09-28T13:42:02.686Z,45.70
2022-09-28T13:45:54.074Z,47.20
2022-09-28T13:49:42.674Z,47.00
2022-09-28T13:53:30.502Z,47.90
2022-09-28T13:57:31.316Z,48.80
2022-09-28T14:01:36.655Z,47.90
2022-09-28T14:05:39.844Z,48.60
2022-09-28T14:09:24.676Z,48.50
2022-09-28T14:13:09.250Z,49.00
2022-09-28T14:17:12.982Z,48.00
2022-09-28T14:21:23.169Z,48.70
2022-09-28T14:25:23.869Z,47.00
2022-09-28T14:29:40.547Z,46.60
2022-09-28T14:33:22.494Z,46.50
2022-09-28T14:37:37.966Z,46.10
2022-09-28T14:41:34.630Z,47.50
2022-09-28T14:45:36.918Z,51.60
2022-09-28T14:49:19.800Z,54.70
2022-09-28T14:53:13.796Z,51.40
2022-09-28T14:57:15.555Z,53.30
2022-09-28T15:01:05.450Z,55.90
2022-09-28T15:04:56.544Z,55.30
2022-09-28T15:08:40.085Z,56.30
2022-09-28T15:12:26.103Z,55.20
2022-09-28T15:16:12.518Z,55.90
2022-09-28T15:20:12.617Z,56.10
2022-09-28T15:23:54.983Z,58.10
2022-09-28T15:27:38.401Z,56.60
2022-09-28T15:31:26.531Z,57.00
2022-09-28T15:35:20.853Z,58.50
2022-09-28T15:39:29.843Z,61.00
2022-09-28T15:47:14.014Z,58.40
2022-09-28T15:51:12.404Z,60.20
2022-09-28T15:54:55.645Z,59.30
2022-09-28T15:58:39.141Z,58.40
2022-09-28T16:02:25.791Z,58.80
2022-09-28T16:06:09.959Z,59.20
2022-09-28T16:10:06.565Z,59.50
2022-09-28T16:14:09.126Z,60.10
2022-09-28T16:17:58.058Z,63.00
2022-09-28T16:21:48.010Z,60.10
2022-09-28T16:25:30.158Z,61.50
2022-09-28T16:29:39.121Z,60.20
2022-09-28T16:33:43.870Z,62.40
2022-09-28T16:37:32.894Z,61.60
2022-09-28T16:41:20.958Z,61.40
2022-09-28T16:45:05.521Z,60.80
2022-09-28T16:48:50.522Z,60.80
2022-09-28T16:52:54.808Z,60.90
2022-09-28T16:56:38.878Z,61.00
2022-09-28T17:00:26.059Z,61.10
2022-09-28T17:04:08.202Z,61.90
2022-09-28T17:08:03.149Z,61.50
2022-09-28T17:11:45.293Z,62.40
2022-09-28T17:15:27.450Z,61.60
2022-09-28T17:19:27.041Z,62.00
2022-09-28T17:23:09.234Z,64.40
2022-09-28T17:26:52.650Z,62.30
2022-09-28T17:30:34.741Z,62.50
2022-09-28T17:34:17.290Z,62.90
2022-09-28T17:37:59.528Z,63.00
2022-09-28T17:41:42.132Z,63.10
2022-09-28T17:45:50.847Z,63.20
2022-09-28T17:49:32.980Z,65.80
2022-09-28T17:53:15.362Z,63.30
2022-09-28T17:56:58.443Z,63.40
2022-09-28T18:00:41.143Z,63.60
2022-09-28T18:04:47.555Z,63.80
2022-09-28T18:08:25.525Z,63.90
2022-09-28T18:12:07.865Z,64.00
2022-09-28T18:15:53.756Z,64.10
2022-09-28T18:19:36.007Z,64.40
2022-09-28T18:23:19.107Z,64.40
2022-09-28T18:27:01.434Z,64.60
2022-09-28T18:30:45.371Z,64.70
2022-09-28T18:34:27.525Z,65.00
2022-09-28T18:38:09.633Z,65.20
2022-09-28T18:41:53.057Z,65.40
2022-09-28T18:45:36.257Z,65.50
2022-09-28T18:49:18.529Z,65.70
2022-09-28T18:53:13.993Z,65.90
2022-09-28T18:56:57.401Z,65.80
2022-09-28T19:00:40.635Z,65.90
2022-09-28T19:04:22.842Z,66.00
2022-09-28T19:08:04.911Z,66.20
2022-09-28T19:11:48.287Z,66.20
2022-09-28T19:15:30.463Z,66.10
2022-09-28T19:19:14.725Z,66.30
2022-09-28T19:22:57.291Z,66.40
2022-09-28T19:26:39.493Z,66.40
2022-09-28T19:30:21.490Z,66.50
2022-09-28T19:34:03.926Z,66.60
2022-09-28T19:37:46.829Z,66.60
2022-09-28T19:41:51.777Z,66.70
2022-09-28T19:45:36.025Z,66.70
2022-09-28T19:49:22.509Z,66.70
2022-09-28T19:53:06.820Z,66.70
2022-09-28T19:56:48.915Z,66.60
2022-09-28T20:00:31.026Z,66.60
2022-09-28T20:04:14.069Z,66.60
2022-09-28T20:07:56.197Z,66.60
2022-09-28T20:11:38.425Z,66.70
2022-09-28T20:15:23.918Z,66.80
2022-09-28T20:19:07.621Z,67.30
2022-09-28T20:22:49.937Z,67.80
2022-09-28T20:26:37.734Z,68.20
2022-09-28T20:30:23.551Z,68.40
2022-09-28T20:34:10.263Z,68.50
2022-09-28T20:37:52.974Z,68.70
2022-09-28T20:41:36.122Z,68.70
2022-09-28T20:45:19.901Z,68.70
2022-09-28T20:49:02.927Z,68.70
2022-09-28T20:52:45.521Z,68.70
2022-09-28T20:56:39.093Z,68.70
2022-09-28T21:00:21.517Z,68.80
2022-09-28T21:04:06.314Z,68.80
2022-09-28T21:07:48.420Z,68.70
2022-09-28T21:11:31.149Z,68.80
2022-09-28T21:15:57.342Z,68.80
2022-09-28T21:19:39.645Z,70.50
2022-09-28T21:23:24.912Z,68.80
2022-09-28T21:27:07.486Z,68.90
2022-09-28T21:30:52.401Z,68.80
2022-09-28T21:34:36.179Z,68.90
2022-09-28T21:38:18.417Z,68.90
2022-09-28T21:42:03.603Z,68.90
2022-09-28T21:45:53.706Z,68.90
2022-09-28T21:49:39.110Z,68.90
2022-09-28T21:53:22.587Z,68.80
2022-09-28T21:57:05.197Z,68.80
2022-09-28T22:00:47.559Z,68.80
2022-09-28T22:04:39.170Z,68.70
2022-09-28T22:08:25.132Z,68.80
2022-09-28T22:12:18.594Z,68.90
2022-09-28T22:16:05.970Z,69.00
2022-09-28T22:19:48.848Z,69.10
2022-09-28T22:23:31.243Z,69.30
2022-09-28T22:27:14.072Z,69.40
2022-09-28T22:31:01.480Z,69.60
2022-09-28T22:34:59.956Z,69.70
2022-09-28T22:38:42.497Z,71.40
2022-09-28T22:42:24.800Z,69.90
2022-09-28T22:46:35.164Z,70.10
2022-09-28T22:50:18.234Z,70.40
2022-09-28T22:54:01.416Z,70.50
2022-09-28T22:57:47.121Z,70.50
2022-09-28T23:01:44.714Z,70.50
2022-09-28T23:05:27.405Z,70.70
2022-09-28T23:09:09.681Z,70.80
2022-09-28T23:12:55.878Z,71.00
2022-09-28T23:16:47.458Z,71.10
2022-09-28T23:20:34.004Z,71.30
2022-09-28T23:24:18.648Z,71.30
2022-09-28T23:28:04.384Z,71.30
2022-09-28T23:31:51.580Z,71.50
2022-09-28T23:35:38.538Z,71.50
2022-09-28T23:39:34.344Z,71.60
2022-09-28T23:43:16.813Z,72.70
2022-09-28T23:47:03.831Z,71.60
2022-09-28T23:50:49.980Z,71.60
2022-09-28T23:54:32.623Z,71.60
2022-09-28T23:58:19.279Z,71.70
